• Join FlightAware (Why Join?)
  • Login
  • US Flag 
05:02AM EDT


 

Airport Tracker/Info


-or-


 

Live Flight TrackerFlight Track Log ✈ JBU300 ✈ 20-Apr-2013 ✈ KLGB - KIAD

Flight Track Log - Related Links

Times and Time Zones

All times are in EDT time to prevent confusion due to time zone crossing. See the JBU300 flight status page for this flight to view local times or setup timezone preferences in your user account.

Time Position Orientation Groundspeed Altitude Reporting Facility
EDT Latitude Longitude Course Direction KTS MPH feet Rate Location/Type
12:43AM 33.8500 -118.1833 230° Southwest 185 213 1,800  Level Southern California TRACON
12:44AM 33.8164 -118.2314 230° Southwest 208 239 3,700 1,680 Climbing Los Angeles Center
12:45AM 33.7569 -118.2478 193° South 212 244 5,600 1,920 Climbing Los Angeles Center
12:46AM 33.6997 -118.2297 165° South 217 250 7,700 1,500 Climbing Los Angeles Center
12:47AM 33.6669 -118.1594 119° Southeast 266 306 8,700 1,380 Climbing Los Angeles Center
12:48AM 33.6758 -118.0611 84° East 296 341 10,600 1,680 Climbing Los Angeles Center
12:49AM 33.6853 -117.9483 84° East 330 380 12,200 1,560 Climbing Los Angeles Center
12:50AM 33.6933 -117.8286 85° East 356 410 13,800 1,680 Climbing Los Angeles Center
12:51AM 33.7050 -117.6714 85° East 391 450 15,700 1,800 Climbing Los Angeles Center
12:52AM 33.7125 -117.5361 86° East 405 466 17,500 1,680 Climbing Los Angeles Center
12:53AM 33.7144 -117.3961 89° East 422 486 19,200 1,500 Climbing Los Angeles Center
12:54AM 33.7044 -117.2531 95° East 432 497 20,600 1,380 Climbing Los Angeles Center
12:55AM 33.6944 -117.1069 95° East 438 504 22,100 1,320 Climbing Los Angeles Center
12:56AM 33.6836 -116.9572 95° East 449 517 23,300 1,140 Climbing Los Angeles Center
12:57AM 33.6744 -116.8067 94° East 458 527 24,400 1,140 Climbing Los Angeles Center
12:58AM 33.6628 -116.6494 95° East 467 537 25,600 1,020 Climbing Los Angeles Center
12:59AM 33.6528 -116.4892 94° East 476 548 26,500 840 Climbing Los Angeles Center
01:00AM 33.6394 -116.3267 96° East 485 558 27,400 840 Climbing Los Angeles Center
01:01AM 33.6458 -116.1631 87° East 493 567 28,200 780 Climbing Los Angeles Center
01:02AM 33.6772 -116.0025 77° East 493 567 29,100 1,080 Climbing Los Angeles Center
01:03AM 33.7272 -115.8517 68° East 487 560 30,400 1,140 Climbing Los Angeles Center
01:04AM 33.7769 -115.7017 68° East 482 555 31,400 900 Climbing Los Angeles Center
01:05AM 33.8256 -115.5508 69° East 485 558 32,300 900 Climbing Los Angeles Center
01:06AM 33.8717 -115.4003 70° East 482 555 33,300 840 Climbing Los Angeles Center
01:07AM 33.9197 -115.2531 68° East 474 545 34,100 660 Climbing Los Angeles Center
01:08AM 33.9667 -115.1053 69° East 474 545 34,700 420 Climbing Los Angeles Center
01:09AM 34.0136 -114.9558 69° East 476 548 35,000 60 Climbing Los Angeles Center
01:10AM 34.0700 -114.7789 69° East 472 543 34,900 -60 Descending Los Angeles Center
01:11AM 34.1175 -114.6314 69° East 471 542 34,900  Level Los Angeles Center
01:12AM 34.1578 -114.4811 72° East 472 543 34,900  Level Los Angeles Center
01:13AM 34.2011 -114.3308 71° East 474 545 35,000  Climbing Los Angeles Center
01:14AM 34.2436 -114.1783 71° East 479 551 35,000  Level Los Angeles Center
01:15AM 34.2858 -114.0283 71° East 471 542 35,000 -60 Level Los Angeles Center
01:16AM 34.3183 -113.9056 72° East 477 549 34,900  Descending Los Angeles Center
01:17AM 34.3711 -113.7125 72° East 482 555 35,000  Climbing Los Angeles Center
01:18AM 34.4125 -113.5647 71° East 487 560 35,000  Level Los Angeles Center
01:19AM 34.4542 -113.4106 72° East 485 558 35,000  Level Los Angeles Center
01:20AM 34.4964 -113.2564 72° East 486 559 35,000  Level Los Angeles Center
01:22AM 34.5456 -113.0692 72° East 490 564 35,000  Level Albuquerque Center
01:23AM 34.5875 -112.9150 72° East 488 562 35,000  Level Albuquerque Center
01:24AM 34.6283 -112.7603 72° East 486 559 35,000  Level Albuquerque Center
01:25AM 34.6694 -112.6036 72° East 490 564 35,000  Level Albuquerque Center
01:26AM 34.7097 -112.4494 72° East 488 562 35,000 -60 Level Albuquerque Center
01:27AM 34.7450 -112.2925 75° East 487 560 34,900  Descending Albuquerque Center
01:28AM 34.7808 -112.1347 75° East 488 562 35,000  Climbing Albuquerque Center
01:29AM 34.8178 -111.9739 74° East 494 568 35,000  Level Albuquerque Center
01:30AM 34.8539 -111.8131 75° East 497 572 35,000  Level Albuquerque Center
01:31AM 34.8894 -111.6533 75° East 498 573 35,000  Level Albuquerque Center
01:32AM 34.9258 -111.4911 75° East 498 573 35,000  Level Albuquerque Center
01:33AM 34.9625 -111.3281 75° East 498 573 35,000  Level Albuquerque Center
01:34AM 34.9978 -111.1639 75° East 498 573 35,000  Level Albuquerque Center
01:35AM 35.0331 -110.9994 75° East 500 575 35,000  Level Albuquerque Center
01:36AM 35.0736 -110.8181 75° East 501 577 35,000  Level Albuquerque Center
01:37AM 35.1061 -110.6625 76° East 497 572 35,000  Level Albuquerque Center
01:38AM 35.1458 -110.4825 75° East 494 568 35,000  Level Albuquerque Center
01:39AM 35.1786 -110.3281 75° East 492 566 35,000  Level Albuquerque Center
01:40AM 35.2122 -110.1733 75° East 492 566 35,000  Level Albuquerque Center
01:41AM 35.2506 -109.9919 75° East 493 567 35,000  Level Albuquerque Center
01:42AM 35.2831 -109.8358 76° East 495 570 35,000  Level Albuquerque Center
01:43AM 35.3150 -109.6772 76° East 499 574 35,000  Level Albuquerque Center
01:44AM 35.3472 -109.5181 76° East 503 579 35,000  Level Albuquerque Center
01:45AM 35.3842 -109.3328 76° East 503 579 35,000  Level Albuquerque Center
01:46AM 35.4167 -109.1753 76° East 501 577 35,000  Level Albuquerque Center
01:47AM 35.4478 -109.0169 76° East 501 577 35,000  Level Albuquerque Center
01:48AM 35.4814 -108.8317 77° East 502 578 35,000  Level Albuquerque Center
01:49AM 35.4903 -108.6642 86° East 513 590 35,000  Level Albuquerque Center
01:50AM 35.5006 -108.4978 86° East 514 592 35,000  Level Albuquerque Center
01:51AM 35.5125 -108.3056 86° East 510 587 35,000  Level Albuquerque Center
01:52AM 35.5225 -108.1406 86° East 510 587 35,000  Level Albuquerque Center
01:53AM 35.5311 -107.9742 86° East 510 587 35,000  Level Albuquerque Center
01:54AM 35.5414 -107.7806 86° East 510 587 35,000  Level Albuquerque Center
01:55AM 35.5497 -107.6158 86° East 508 585 35,000  Level Albuquerque Center
01:56AM 35.5586 -107.4500 86° East 509 586 35,000  Level Albuquerque Center
01:57AM 35.5675 -107.2833 86° East 511 588 35,000  Level Albuquerque Center
01:58AM 35.5756 -107.1225 86° East 511 588 35,000  Level Albuquerque Center
01:59AM 35.5850 -106.9469 86° East 511 588 35,000  Level Albuquerque Center
02:00AM 35.5939 -106.7744 86° East 506 582 35,000 -60 Level Albuquerque Center
02:01AM 35.6019 -106.6039 87° East 500 575 34,900  Descending Albuquerque Center
02:02AM 35.6097 -106.4317 87° East 502 578 35,000  Climbing Albuquerque Center
02:03AM 35.6169 -106.2608 87° East 501 577 34,900  Descending Albuquerque Center
02:04AM 35.6242 -106.0839 87° East 514 592 35,000  Climbing Albuquerque Center
02:05AM 35.6314 -105.9086 87° East 514 592 35,000  Level Albuquerque Center
02:06AM 35.6389 -105.7319 87° East 516 594 35,000  Level Albuquerque Center
02:07AM 35.6453 -105.5256 88° East 510 587 35,000 -60 Level Albuquerque Center
02:08AM 35.6519 -105.3514 87° East 507 583 34,900  Descending Albuquerque Center
02:09AM 35.6567 -105.1758 88° East 507 583 35,000  Climbing Albuquerque Center
02:10AM 35.6625 -104.9994 88° East 509 586 35,000  Level Albuquerque Center
02:11AM 35.6717 -104.8514 86° East 513 590 35,000  Level Albuquerque Center
02:12AM 35.6808 -104.6733 86° East 515 593 35,000  Level Albuquerque Center
02:13AM 35.6903 -104.4978 86° East 510 587 35,000  Level Albuquerque Center
02:14AM 35.6994 -104.3233 86° East 505 581 35,000  Level Albuquerque Center
02:15AM 35.7081 -104.1500 86° East 502 578 35,000  Level Albuquerque Center
02:16AM 35.7161 -103.9719 87° East 509 586 35,000  Level Albuquerque Center
02:17AM 35.7236 -103.7942 87° East 512 589 35,000  Level Albuquerque Center
02:18AM 35.7322 -103.6147 87° East 516 594 35,100  Climbing Albuquerque Center
02:19AM 35.7397 -103.4367 87° East 516 594 35,000 -60 Descending Albuquerque Center
02:20AM 35.7467 -103.2614 87° East 511 588 35,000  Level Albuquerque Center
02:21AM 35.7531 -103.0858 87° East 509 586 35,000  Level Albuquerque Center
02:22AM 35.7608 -102.9111 87° East 506 582 35,000  Level Albuquerque Center
02:23AM 35.7656 -102.7392 88° East 504 580 35,000  Level Albuquerque Center
02:24AM 35.7711 -102.5672 88° East 502 578 35,000  Level Albuquerque Center
02:25AM 35.7767 -102.3956 88° East 502 578 35,000  Level Albuquerque Center
02:26AM 35.7831 -102.2250 87° East 500 575 35,000  Level Albuquerque Center
02:27AM 35.7883 -102.0550 88° East 496 571 35,000  Level Albuquerque Center
02:28AM 35.7936 -101.8842 88° East 496 571 35,000  Level Albuquerque Center
02:29AM 35.7989 -101.7158 88° East 492 566 35,000  Level Albuquerque Center
02:30AM 35.8028 -101.5475 88° East 490 564 35,000  Level Albuquerque Center
02:31AM 35.8289 -101.3464 81° East 496 571 35,000  Level Albuquerque Center
02:32AM 35.8761 -101.1872 70° East 494 568 35,000  Level Albuquerque Center
02:33AM 35.9328 -101.0344 65° Northeast 492 566 35,000  Level Albuquerque Center
02:34AM 35.9839 -100.8942 66° East 492 566 35,000  Level Albuquerque Center
02:35AM 36.0408 -100.7381 66° East 495 570 35,000  Level Albuquerque Center
02:36AM 36.0950 -100.5831 67° East 492 566 35,000  Level Albuquerque Center
02:37AM 36.1508 -100.4275 66° East 492 566 35,000  Level Albuquerque Center
02:38AM 36.1833 -100.3347 67° East 491 565 35,000  Level Kansas City Center
02:39AM 36.2394 -100.1789 66° East 492 566 35,000 -60 Level Kansas City Center
02:40AM 36.2933 -100.0242 67° East 489 563 34,900  Descending Kansas City Center
02:41AM 36.3433 -99.8653 69° East 493 567 35,000  Climbing Kansas City Center
02:42AM 36.3731 -99.6975 78° East 496 571 35,000  Level Kansas City Center
02:43AM 36.3989 -99.5294 79° East 494 568 35,000  Level Kansas City Center
02:44AM 36.4253 -99.3617 79° East 491 565 35,000  Level Kansas City Center
02:45AM 36.4508 -99.1947 79° East 488 562 35,000  Level Kansas City Center
02:46AM 36.4772 -99.0283 79° East 486 559 35,000  Level Kansas City Center
02:47AM 36.5014 -98.8628 80° East 484 557 35,000  Level Kansas City Center
02:48AM 36.5264 -98.6994 79° East 479 551 35,000 -60 Level Kansas City Center
02:49AM 36.5517 -98.5361 79° East 479 551 34,900  Descending Kansas City Center
02:50AM 36.5764 -98.3736 79° East 477 549 35,000  Climbing Kansas City Center
02:51AM 36.5994 -98.2094 80° East 479 551 35,000  Level Kansas City Center
02:52AM 36.6225 -98.0456 80° East 479 551 35,000  Level Kansas City Center
02:53AM 36.6458 -97.8831 80° East 478 550 35,000  Level Kansas City Center
02:54AM 36.6675 -97.7300 80° East 478 550 35,000  Level Kansas City Center
02:55AM 36.6903 -97.5658 80° East 482 555 35,000  Level Kansas City Center
02:56AM 36.7128 -97.4083 80° East 485 558 35,000  Level Kansas City Center
02:57AM 36.7350 -97.2422 80° East 486 559 35,000  Level Kansas City Center
02:58AM 36.7578 -97.0800 80° East 481 554 35,000  Level Kansas City Center
02:59AM 36.7883 -96.9272 76° East 476 548 35,000  Level Kansas City Center
03:00AM 36.8167 -96.7642 78° East 479 551 35,000  Level Kansas City Center
03:01AM 36.8444 -96.5997 78° East 481 554 35,000  Level Kansas City Center
03:02AM 36.8703 -96.4375 79° East 478 550 35,000  Level Kansas City Center
03:03AM 36.8981 -96.2753 78° East 476 548 35,000  Level Kansas City Center
03:04AM 36.9261 -96.1117 78° East 478 550 35,000  Level Kansas City Center
03:05AM 36.9536 -95.9467 78° East 480 552 35,000  Level Kansas City Center
03:06AM 36.9817 -95.7814 78° East 482 555 35,000  Level Kansas City Center
03:07AM 37.0089 -95.6161 78° East 481 554 35,000  Level Kansas City Center
03:08AM 37.0347 -95.4539 79° East 477 549 35,000  Level Kansas City Center
03:09AM 37.0608 -95.2917 79° East 473 544 35,000  Level Kansas City Center
03:10AM 37.0869 -95.1306 78° East 472 543 35,000  Level Kansas City Center
03:11AM 37.1139 -94.9658 78° East 475 547 35,000  Level Kansas City Center
03:12AM 37.1381 -94.8011 80° East 478 550 35,000  Level Kansas City Center
03:13AM 37.1636 -94.6375 79° East 478 550 35,000  Level Kansas City Center
03:14AM 37.1897 -94.4728 79° East 480 552 35,000  Level Kansas City Center
03:15AM 37.2153 -94.3067 79° East 482 555 35,000  Level Kansas City Center
03:16AM 37.2400 -94.1406 79° East 484 557 35,000  Level Kansas City Center
03:17AM 37.2633 -93.9817 79° East 483 556 35,000  Level Kansas City Center
03:18AM 37.2883 -93.8158 79° East 483 556 35,000  Level Kansas City Center
03:19AM 37.3122 -93.6503 80° East 481 554 35,000  Level Kansas City Center
03:20AM 37.3364 -93.4831 80° East 484 557 35,000  Level Kansas City Center
03:21AM 37.3581 -93.3156 81° East 484 557 35,000  Level Kansas City Center
03:22AM 37.3778 -93.1492 81° East 482 555 35,000  Level Kansas City Center
03:23AM 37.3956 -92.9828 82° East 480 552 35,000  Level Kansas City Center
03:24AM 37.4147 -92.8167 82° East 482 555 35,000  Level Kansas City Center
03:25AM 37.4331 -92.6483 82° East 484 557 35,000  Level Kansas City Center
03:26AM 37.4517 -92.4822 82° East 483 556 35,000  Level Kansas City Center
03:27AM 37.4697 -92.3153 82° East 483 556 35,000  Level Kansas City Center
03:28AM 37.4875 -92.1486 82° East 483 556 35,000  Level Kansas City Center
03:29AM 37.5047 -91.9831 82° East 481 554 35,000 -60 Level Kansas City Center
03:30AM 37.5228 -91.8167 82° East 481 554 34,900  Descending Kansas City Center
03:31AM 37.5389 -91.6508 83° East 478 550 35,000  Climbing Kansas City Center
03:32AM 37.5550 -91.4839 83° East 478 550 35,000  Level Kansas City Center
03:33AM 37.5731 -91.3161 82° East 481 554 35,000  Level Kansas City Center
03:34AM 37.5928 -91.1142 83° East 483 556 35,000  Level Kansas City Center
03:35AM 37.6081 -90.9453 83° East 483 556 35,000  Level Kansas City Center
03:36AM 37.6208 -90.8086 83° East 483 556 35,000  Level Kansas City Center
03:37AM 37.6372 -90.6397 83° East 485 558 35,000 300 Level Kansas City Center
03:38AM 37.6519 -90.4697 84° East 488 562 35,600 780 Climbing Kansas City Center
03:39AM 37.6669 -90.3075 83° East 481 554 36,600 600 Climbing Kansas City Center
03:40AM 37.6836 -90.1397 83° East 481 554 36,900 180 Climbing Kansas City Center
03:41AM 37.7033 -89.9672 82° East 492 566 37,000  Climbing Kansas City Center
03:42AM 37.7264 -89.7569 82° East 503 579 37,000  Level Kansas City Center
03:43AM 37.7458 -89.5839 82° East 502 578 37,000  Level Kansas City Center
03:44AM 37.7636 -89.4114 83° East 500 575 37,000  Level Kansas City Center
03:45AM 37.7819 -89.2450 82° East 498 573 37,000  Level Kansas City Center
03:46AM 37.7994 -89.0711 83° East 497 572 37,000  Level Kansas City Center
03:47AM 37.8156 -88.8958 83° East 491 565 37,000  Level Kansas City Center
03:48AM 37.8336 -88.7211 82° East 496 571 37,000  Level Kansas City Center
03:49AM 37.8547 -88.5511 81° East 489 563 37,000  Level Kansas City Center
03:50AM 37.8717 -88.3742 83° East 499 574 37,000  Level Kansas City Center
03:51AM 37.8833 -88.2322 84° East 504 580 37,000  Level Indianapolis Center
03:51AM 37.8878 -88.1969 81° East 503 579 37,000  Level Kansas City Center
03:52AM 37.9047 -88.0208 83° East 503 579 37,000  Level Kansas City Center
03:53AM 37.9214 -87.8464 83° East 501 577 37,000  Level Kansas City Center
03:54AM 37.9311 -87.7408 83° East 500 575 37,000  Level Indianapolis Center
03:55AM 37.9456 -87.5656 84° East 501 577 37,000  Level Indianapolis Center
03:56AM 37.9603 -87.3903 84° East 502 578 37,000  Level Indianapolis Center
03:57AM 37.9786 -87.1800 84° East 503 579 37,000  Level Indianapolis Center
03:58AM 37.9931 -87.0067 84° East 501 577 37,000  Level Indianapolis Center
03:59AM 38.0075 -86.8322 84° East 502 578 37,000  Level Indianapolis Center
04:00AM 38.0219 -86.6583 84° East 501 577 37,000  Level Indianapolis Center
04:01AM 38.0367 -86.4811 84° East 505 581 37,000  Level Indianapolis Center
04:02AM 38.0500 -86.3047 84° East 503 579 37,000  Level Indianapolis Center
04:03AM 38.0647 -86.1283 84° East 502 578 37,000  Level Indianapolis Center
04:04AM 38.0769 -85.9525 85° East 501 577 37,000  Level Indianapolis Center
04:05AM 38.0903 -85.7747 85° East 504 580 37,000  Level Indianapolis Center
04:06AM 38.1022 -85.5961 85° East 507 583 37,000  Level Indianapolis Center
04:07AM 38.1175 -85.4175 84° East 507 583 37,000  Level Indianapolis Center
04:08AM 38.1328 -85.2383 84° East 510 587 37,000  Level Indianapolis Center
04:09AM 38.1447 -85.0653 85° East 506 582 37,000  Level Indianapolis Center
04:10AM 38.1600 -84.8844 84° East 510 587 37,000  Level Indianapolis Center
04:11AM 38.1717 -84.7067 85° East 505 581 37,000  Level Indianapolis Center
04:12AM 38.1858 -84.5261 84° East 509 586 37,000  Level Indianapolis Center
04:13AM 38.1978 -84.3475 85° East 506 582 37,000  Level Indianapolis Center
04:14AM 38.2097 -84.1683 85° East 507 583 37,000  Level Indianapolis Center
04:15AM 38.2228 -83.9897 85° East 504 580 37,000  Level Indianapolis Center
04:16AM 38.2344 -83.8108 85° East 505 581 37,000  Level Indianapolis Center
04:17AM 38.2467 -83.6300 85° East 511 588 37,000  Level Indianapolis Center
04:18AM 38.2564 -83.4806 85° East 507 583 37,000  Level Indianapolis Center
04:19AM 38.2681 -83.3006 85° East 507 583 37,000  Level Indianapolis Center
04:20AM 38.2817 -83.1211 84° East 508 585 37,000  Level Indianapolis Center
04:21AM 38.3067 -82.9428 80° East 509 586 37,000  Level Indianapolis Center
04:22AM 38.3303 -82.7647 80° East 508 585 37,000  Level Indianapolis Center
04:23AM 38.3556 -82.5872 80° East 508 585 37,000  Level Indianapolis Center
04:24AM 38.3767 -82.4206 81° East 509 586 37,000  Level Indianapolis Center
04:25AM 38.4003 -82.2411 80° East 511 588 37,000  Level Indianapolis Center
04:26AM 38.4236 -82.0625 80° East 511 588 37,000  Level Indianapolis Center
04:27AM 38.4464 -81.8844 81° East 510 587 37,000  Level Indianapolis Center
04:28AM 38.4731 -81.6719 81° East 511 588 37,000  Level Indianapolis Center
04:29AM 38.4950 -81.4950 81° East 514 592 37,000  Level Indianapolis Center
04:30AM 38.5161 -81.3178 81° East 515 593 37,000  Level Indianapolis Center
04:31AM 38.5372 -81.1394 81° East 516 594 37,000  Level Indianapolis Center
04:32AM 38.5606 -80.9642 80° East 504 580 37,000  Level Indianapolis Center
04:33AM 38.5825 -80.7836 81° East 514 592 37,000  Level Indianapolis Center
04:34AM 38.6019 -80.6025 82° East 512 589 37,000  Level Indianapolis Center
04:35AM 38.6247 -80.4228 81° East 514 592 37,000 -240 Level Indianapolis Center
04:36AM 38.6464 -80.2408 81° East 517 595 36,600 -780 Descending Indianapolis Center
04:37AM 38.6656 -80.0600 82° East 515 593 35,500 -1,680 Descending Indianapolis Center
04:37AM 38.6783 -79.9450 82° East 520 598 33,900 -2,760 Descending Washington Center
04:38AM 38.6992 -79.7628 82° East 520 598 31,000 -3,120 Descending Washington Center
04:39AM 38.7181 -79.5775 82° East 520 598 27,700 -2,940 Descending Washington Center
04:40AM 38.7378 -79.4189 81° East 520 598 25,200 -2,700 Descending Washington Center
04:41AM 38.7564 -79.2228 83° East 509 586 22,400 -2,640 Descending Washington Center
04:42AM 38.7739 -79.0586 82° East 488 562 20,000 -2,160 Descending Washington Center
04:43AM 38.7886 -78.9050 83° East 460 529 18,100 -2,460 Descending Washington Center
04:44AM 38.8031 -78.7511 83° East 442 509 15,100 -2,640 Descending Washington Center
04:45AM 38.8172 -78.6050 83° East 425 489 12,900 -2,100 Descending Washington Center
04:46AM 38.8311 -78.4644 83° East 415 478 11,000 -1,440 Descending Washington Center
04:47AM 38.8425 -78.3369 83° East 383 441 10,100 -1,020 Descending Washington Center
04:48AM 38.8469 -78.2250 87° East 344 396 9,000 -1,200 Descending Washington Center
04:49AM 38.8328 -78.1181 100° East 316 364 7,800 -1,500 Descending Washington Center
04:50AM 38.8203 -78.0164 99° East 293 337 6,000 -1,380 Descending Washington Center
04:51AM 38.8075 -77.9147 99° East 293 337 5,100 -540 Descending Washington Center
04:52AM 38.7950 -77.8131 99° East 288 331 5,000 -600 Descending Washington Center
04:53AM 38.7819 -77.7167 100° East 283 326 4,000 -960 Descending Washington Center
04:54AM 38.7692 -77.6231 100° East 273 314 3,100 -600 Descending Washington Center
04:55AM 38.7744 -77.5542 84° East 239 275 2,900 -60 Descending Washington Center
04:56AM 38.8000 -77.4667 69° East 189 217 3,000 -240 Climbing Potomac TRACON
04:57AM 38.8333 -77.4667 360° North 155 178 2,500 -660 Descending Potomac TRACON
04:58AM 38.8667 -77.4667 360° North 137 158 1,700 -840 Descending Potomac TRACON
04:59AM 38.9167 -77.4667 360° North 132 152 900 -840 Descending Potomac TRACON
05:01AM 38.9474 -77.4599 North  Level Estimated
05:08AM 38.9474 -77.4599 159° South  Level Estimated